Time;durP1;ratioP1;P1;durP2;ratioP2;P2;SDS_P1;SDS_P2;PMS_P1;PMS_P2;Temp;Humidity;BMP_temperature;BMP_pressure;BME280_temperature;BME280_humidity;BME280_pressure;Samples;Min_cycle;Max_cycle;Signal;HPM_P1;HPM_P2
2023/03/21 00:00:57;;;;;;;10.48;3.65;;;;;;;17.90;43.34;101494.97;4995541;28;20030;-64
2023/03/21 00:03:24;;;;;;;10.18;3.63;;;;;;;17.90;43.28;101488.72;4994203;28;20061;-65
2023/03/21 00:05:52;;;;;;;7.22;2.90;;;;;;;17.90;44.13;101489.56;4995407;28;20058;-64
2023/03/21 00:08:18;;;;;;;10.40;3.47;;;;;;;17.87;43.83;101491.72;4994600;28;20045;-64
2023/03/21 00:10:44;;;;;;;10.25;3.70;;;;;;;17.85;43.67;101488.34;4978152;28;20022;-64
2023/03/21 00:13:14;;;;;;;13.63;3.85;;;;;;;17.80;43.28;101494.25;4995763;28;20022;-65
2023/03/21 00:15:53;;;;;;;7.55;3.65;;;;;;;17.80;43.87;101488.84;4994523;28;20050;-64
2023/03/21 00:18:21;;;;;;;11.38;3.13;;;;;;;17.81;44.23;101489.69;4994701;28;20026;-65
2023/03/21 00:21:02;;;;;;;11.15;3.78;;;;;;;17.83;43.15;101488.50;4994189;28;20058;-64
2023/03/21 00:23:32;;;;;;;7.18;2.60;;;;;;;17.86;43.53;101484.63;4994897;28;20033;-64
2023/03/21 00:25:58;;;;;;;10.80;3.33;;;;;;;17.87;43.77;101481.75;4996407;28;20032;-63
2023/03/21 00:28:23;;;;;;;7.85;3.42;;;;;;;17.88;43.33;101469.91;4996310;28;20057;-64
2023/03/21 00:30:49;;;;;;;8.80;3.60;;;;;;;17.91;43.76;101464.16;4994564;28;20030;-65
2023/03/21 00:33:15;;;;;;;13.60;3.85;;;;;;;17.93;44.14;101461.28;4977704;28;20034;-65
2023/03/21 00:35:46;;;;;;;13.95;3.55;;;;;;;17.93;43.55;101454.00;4993814;28;20035;-64
2023/03/21 00:38:13;;;;;;;10.88;3.45;;;;;;;17.96;44.12;101459.09;4993980;28;20482;-64
2023/03/21 00:40:38;;;;;;;6.68;3.28;;;;;;;17.99;43.49;101450.66;4993868;28;20513;-64
2023/03/21 00:43:03;;;;;;;12.13;3.15;;;;;;;18.01;43.84;101445.91;4994983;28;20058;-64
2023/03/21 00:45:30;;;;;;;6.93;3.30;;;;;;;18.01;43.20;101443.19;4993575;28;20070;-65
2023/03/21 00:47:57;;;;;;;8.82;3.85;;;;;;;17.99;43.27;101447.94;4993714;28;20022;-64
2023/03/21 00:50:23;;;;;;;12.73;3.63;;;;;;;17.97;43.11;101439.13;4977381;28;20072;-65
2023/03/21 00:52:48;;;;;;;8.65;2.97;;;;;;;17.93;43.83;101445.88;4993512;28;20034;-64
2023/03/21 00:55:16;;;;;;;6.43;3.75;;;;;;;17.87;44.13;101440.22;4993429;28;20029;-64
2023/03/21 00:57:41;;;;;;;13.50;3.88;;;;;;;17.81;43.27;101436.31;4993676;28;20018;-64
2023/03/21 01:00:09;;;;;;;9.02;2.92;;;;;;;17.76;43.64;101426.97;4993369;28;20045;-64
2023/03/21 01:02:36;;;;;;;7.07;3.35;;;;;;;17.70;43.59;101420.31;4993231;28;20038;-64
2023/03/21 01:05:03;;;;;;;7.40;3.30;;;;;;;17.70;44.21;101427.63;4993214;28;20050;-65
2023/03/21 01:07:28;;;;;;;13.35;3.15;;;;;;;17.65;44.40;101419.97;4993009;28;20034;-64
2023/03/21 01:09:54;;;;;;;10.30;3.60;;;;;;;17.64;43.75;101417.44;4976901;28;20547;-65
2023/03/21 01:12:19;;;;;;;8.90;3.10;;;;;;;17.60;43.94;101416.03;4992634;28;20034;-64
2023/03/21 01:14:45;;;;;;;9.82;4.00;;;;;;;17.58;43.36;101424.34;4993041;28;20038;-64
2023/03/21 01:17:10;;;;;;;8.82;3.40;;;;;;;17.55;44.16;101412.97;4978009;28;20070;-64
2023/03/21 01:19:36;;;;;;;9.48;4.07;;;;;;;17.54;43.99;101413.97;4957539;28;20031;-64
2023/03/21 01:22:01;;;;;;;8.65;2.88;;;;;;;17.53;44.09;101409.53;4974908;28;20105;-65
2023/03/21 01:24:26;;;;;;;8.23;3.50;;;;;;;17.50;44.40;101416.13;4957512;28;20491;-65
2023/03/21 01:26:52;;;;;;;12.68;3.78;;;;;;;17.47;43.59;101406.44;4957713;28;20054;-66
2023/03/21 01:29:18;;;;;;;6.72;3.20;;;;;;;17.45;44.35;101402.19;4954092;28;20031;-66
2023/03/21 01:31:43;;;;;;;6.82;2.75;;;;;;;17.42;44.40;101397.09;4955529;28;20051;-64
2023/03/21 01:34:09;;;;;;;8.80;3.22;;;;;;;17.42;44.41;101402.50;4954563;29;20467;-65
2023/03/21 01:36:34;;;;;;;10.68;3.20;;;;;;;17.39;44.00;101402.84;4954351;29;20039;-65
2023/03/21 01:39:00;;;;;;;9.10;4.03;;;;;;;17.38;44.66;101395.72;4970231;28;20031;-64
2023/03/21 01:41:37;;;;;;;8.63;2.90;;;;;;;17.37;44.22;101388.59;4954279;29;20106;-65
2023/03/21 01:44:03;;;;;;;8.52;2.97;;;;;;;17.34;44.67;101386.22;4955084;28;20023;-64
2023/03/21 01:46:48;;;;;;;9.63;3.00;;;;;;;17.35;44.43;101379.78;4938102;29;20554;-63
2023/03/21 01:49:20;;;;;;;12.68;3.38;;;;;;;17.32;43.60;101375.53;4954111;29;20035;-65
2023/03/21 01:51:51;;;;;;;7.85;2.92;;;;;;;17.27;43.99;101374.31;4955185;28;20051;-64
2023/03/21 01:54:23;;;;;;;6.82;3.10;;;;;;;17.33;44.06;101374.56;4954003;29;20525;-64
2023/03/21 01:56:50;;;;;;;6.60;2.73;;;;;;;17.37;44.53;101377.75;4970055;28;20039;-64
2023/03/21 01:59:20;;;;;;;9.90;3.38;;;;;;;17.37;44.59;101370.50;4937946;29;20106;-63
2023/03/21 02:01:48;;;;;;;8.68;2.70;;;;;;;17.35;44.07;101363.53;4954278;29;20024;-64
2023/03/21 02:04:13;;;;;;;5.05;2.78;;;;;;;17.42;44.75;101370.00;4937644;29;20043;-64
2023/03/21 02:06:45;;;;;;;12.73;3.22;;;;;;;17.44;44.04;101363.44;4954251;29;20046;-64
2023/03/21 02:09:15;;;;;;;9.43;2.97;;;;;;;17.44;45.09;101354.47;4953947;29;20435;-64
2023/03/21 02:11:45;;;;;;;8.18;2.65;;;;;;;17.47;44.91;101356.84;4953725;29;20051;-64
2023/03/21 02:14:14;;;;;;;3.85;2.22;;;;;;;17.47;45.21;101351.44;4969730;28;20368;-64
2023/03/21 02:16:44;;;;;;;5.72;2.95;;;;;;;17.48;44.92;101348.56;4937503;29;20031;-65
2023/03/21 02:19:30;;;;;;;7.50;2.90;;;;;;;17.51;44.77;101341.09;4953671;29;20113;-64
2023/03/21 02:22:27;;;;;;;7.30;3.33;;;;;;;17.53;44.97;101333.69;4953778;28;20126;-64
2023/03/21 02:25:20;;;;;;;5.97;2.47;;;;;;;17.56;44.58;101328.81;4957718;29;20039;-65
2023/03/21 02:27:47;;;;;;;;;;;;;;;17.59;44.90;101328.47;4958235;28;20019;-64
2023/03/21 02:30:37;;;;;;;9.40;2.92;;;;;;;17.62;43.74;101328.16;4957521;28;19917;-65
2023/03/21 02:33:41;;;;;;;14.60;3.30;;;;;;;17.66;44.63;101317.84;4958645;28;20391;-65
2023/03/21 02:36:25;;;;;;;8.52;2.80;;;;;;;17.67;44.37;101319.56;4945967;29;20041;-65
2023/03/21 02:38:53;;;;;;;9.55;2.63;;;;;;;17.68;44.48;101321.25;4958502;28;20055;-65
2023/03/21 02:41:28;;;;;;;9.05;2.38;;;;;;;17.70;43.92;101306.53;4957246;28;20038;-65
2023/03/21 02:44:15;;;;;;;6.10;2.47;;;;;;;17.71;44.14;101308.22;4941092;29;20122;-64
2023/03/21 02:46:43;;;;;;;9.95;2.92;;;;;;;17.75;44.17;101309.59;4957135;29;20098;-65
2023/03/21 02:49:25;;;;;;;11.15;3.70;;;;;;;17.76;44.41;101308.56;4956990;29;20078;-65
2023/03/21 02:51:50;;;;;;;9.65;3.03;;;;;;;17.77;44.74;101310.28;4958166;28;20060;-65
2023/03/21 02:54:19;;;;;;;5.05;2.72;;;;;;;17.77;44.42;101306.72;4940968;29;20031;-65
2023/03/21 02:56:47;;;;;;;11.00;3.03;;;;;;;17.79;44.55;101297.41;4940918;29;20031;-64
2023/03/21 02:59:15;;;;;;;7.47;2.50;;;;;;;17.79;44.55;101305.53;4956904;29;20019;-65
2023/03/21 03:01:41;;;;;;;7.47;2.55;;;;;;;17.78;45.11;101295.69;4940676;29;20447;-64
2023/03/21 03:04:17;;;;;;;7.97;2.72;;;;;;;17.74;43.72;101291.63;4956384;29;20031;-65
2023/03/21 03:06:56;;;;;;;13.45;3.55;;;;;;;17.74;44.47;101298.91;4956808;29;20070;-64
2023/03/21 03:09:37;;;;;;;9.32;2.40;;;;;;;17.67;43.94;101290.59;4956757;29;20054;-65
2023/03/21 03:12:22;;;;;;;9.27;2.20;;;;;;;17.65;43.86;101289.91;4956904;28;20038;-64
2023/03/21 03:14:53;;;;;;;6.75;2.38;;;;;;;17.66;44.78;101296.19;4957778;28;20102;-65
2023/03/21 03:17:45;;;;;;;12.98;3.33;;;;;;;17.63;44.21;101293.78;4958272;28;20037;-65
2023/03/21 03:20:16;;;;;;;8.63;3.05;;;;;;;17.64;43.92;101293.66;4940720;29;20027;-64
2023/03/21 03:23:12;;;;;;;8.00;2.58;;;;;;;17.62;44.20;101289.38;4956323;28;20027;-65
2023/03/21 03:25:51;;;;;;;6.28;3.13;;;;;;;17.61;44.42;101293.97;4939228;29;20117;-65
2023/03/21 03:28:21;;;;;;;8.75;2.83;;;;;;;17.63;45.11;101288.38;4957595;28;20027;-64
2023/03/21 03:30:47;;;;;;;10.32;3.58;;;;;;;17.61;44.48;101277.72;4940617;29;20035;-64
2023/03/21 03:33:16;;;;;;;7.93;2.47;;;;;;;17.66;44.17;101282.63;4956190;28;20022;-64
2023/03/21 03:35:43;;;;;;;11.10;2.50;;;;;;;17.65;44.78;101276.34;4940269;29;20054;-64
2023/03/21 03:38:09;;;;;;;5.40;2.30;;;;;;;17.67;44.92;101276.22;4972226;28;20106;-64
2023/03/21 03:40:40;;;;;;;11.40;2.65;;;;;;;17.66;44.14;101283.50;4957428;28;20452;-65
2023/03/21 03:43:10;;;;;;;11.93;3.38;;;;;;;17.66;45.08;101280.78;4957227;28;20030;-65
2023/03/21 03:45:43;;;;;;;10.13;2.20;;;;;;;17.64;45.28;101266.56;4955981;29;20031;-65
2023/03/21 03:48:17;;;;;;;;;;;;;;;17.67;45.57;101266.19;4956386;29;20031;-65
2023/03/21 03:51:03;;;;;;;8.73;2.22;;;;;;;17.68;44.47;101262.47;4955916;28;19933;-64
2023/03/21 03:53:31;;;;;;;9.82;2.90;;;;;;;17.69;44.16;101258.78;4956005;29;20029;-64
2023/03/21 03:55:58;;;;;;;6.68;2.80;;;;;;;17.70;45.02;101265.06;4957031;28;20645;-64
2023/03/21 03:58:25;;;;;;;8.93;2.45;;;;;;;17.70;45.00;101265.88;4955879;28;20117;-64
2023/03/21 04:00:53;;;;;;;5.78;2.33;;;;;;;17.70;44.96;101255.03;4939925;29;20050;-63
2023/03/21 04:03:18;;;;;;;8.82;2.60;;;;;;;17.69;45.11;101253.34;4956760;28;20035;-64
2023/03/21 04:05:46;;;;;;;10.52;3.25;;;;;;;17.70;44.23;101260.44;4939749;29;20530;-65
2023/03/21 04:08:13;;;;;;;6.30;2.25;;;;;;;17.73;44.57;101254.72;4955588;29;20070;-64
2023/03/21 04:10:39;;;;;;;6.30;2.58;;;;;;;17.72;44.98;101253.03;4955632;29;20506;-64
2023/03/21 04:13:06;;;;;;;9.98;2.70;;;;;;;17.73;44.42;101254.72;4939547;29;20027;-64
2023/03/21 04:15:31;;;;;;;9.80;2.65;;;;;;;17.77;44.38;101260.66;4939716;29;20035;-64
2023/03/21 04:17:57;;;;;;;6.63;2.38;;;;;;;17.78;44.63;101260.47;4955648;29;20090;-64
2023/03/21 04:20:23;;;;;;;10.55;2.33;;;;;;;17.80;44.63;101261.19;4955358;29;20042;-65
2023/03/21 04:22:48;;;;;;;6.50;3.38;;;;;;;17.83;45.08;101266.28;4955257;29;20546;-64
2023/03/21 04:25:14;;;;;;;6.55;2.00;;;;;;;17.83;44.87;101260.84;4955337;29;20082;-64
2023/03/21 04:27:39;;;;;;;7.43;2.38;;;;;;;17.87;44.85;101267.63;4955121;29;20058;-65
2023/03/21 04:30:06;;;;;;;8.02;2.40;;;;;;;17.87;44.64;101267.63;4955309;29;20097;-65
2023/03/21 04:32:32;;;;;;;6.95;2.20;;;;;;;17.89;44.64;101260.19;4955426;29;20019;-65
2023/03/21 04:34:59;;;;;;;6.80;2.45;;;;;;;17.87;44.58;101259.50;4955170;28;20399;-64
2023/03/21 04:37:24;;;;;;;6.30;2.35;;;;;;;17.88;44.97;101263.91;4939387;29;20023;-65
2023/03/21 04:39:50;;;;;;;9.32;2.75;;;;;;;17.90;44.98;101261.88;4939446;29;20501;-65
2023/03/21 04:42:17;;;;;;;6.57;2.22;;;;;;;17.92;44.28;101267.13;4923874;29;20035;-65
2023/03/21 04:44:47;;;;;;;9.98;2.78;;;;;;;17.90;44.36;101264.59;4955326;29;20074;-65
2023/03/21 04:47:14;;;;;;;8.20;2.72;;;;;;;17.86;44.86;101265.94;4938429;29;20035;-65
2023/03/21 04:49:40;;;;;;;9.80;2.72;;;;;;;17.85;44.86;101269.66;4955075;29;20026;-64
2023/03/21 04:52:07;;;;;;;8.63;2.60;;;;;;;17.85;44.24;101263.38;4955159;29;20407;-65
2023/03/21 04:54:33;;;;;;;7.03;2.60;;;;;;;17.85;44.51;101266.09;4938935;28;20028;-65
2023/03/21 04:56:58;;;;;;;7.97;2.65;;;;;;;17.83;45.59;101260.84;4954946;29;20474;-64
2023/03/21 04:59:24;;;;;;;5.70;2.45;;;;;;;17.84;43.99;101257.09;4940494;29;20027;-64
2023/03/21 05:01:50;;;;;;;6.95;2.58;;;;;;;17.84;45.43;101251.69;4956753;29;20099;-65
2023/03/21 05:04:16;;;;;;;11.32;2.75;;;;;;;17.83;45.14;101255.44;4955971;28;20114;-65
2023/03/21 05:06:42;;;;;;;16.42;3.65;;;;;;;17.83;45.22;101255.44;4954416;29;20139;-64
2023/03/21 05:09:08;;;;;;;8.00;3.10;;;;;;;17.81;44.51;101257.44;4954570;29;20046;-65
2023/03/21 05:11:36;;;;;;;7.07;2.20;;;;;;;17.79;44.27;101259.47;4954441;28;20035;-65
2023/03/21 05:14:06;;;;;;;9.02;2.70;;;;;;;17.77;44.70;101261.50;4938640;29;20471;-65
2023/03/21 05:16:33;;;;;;;8.18;2.97;;;;;;;17.76;45.47;101251.66;4954534;29;20035;-65
2023/03/21 05:19:03;;;;;;;11.35;2.97;;;;;;;17.76;45.51;101248.97;4970413;28;20046;-65
2023/03/21 05:21:40;;;;;;;8.95;3.72;;;;;;;17.75;45.72;101251.84;4954537;29;20050;-65
2023/03/21 05:24:10;;;;;;;7.78;2.90;;;;;;;17.75;45.25;101247.28;4954223;28;20023;-65
2023/03/21 05:26:39;;;;;;;9.73;3.33;;;;;;;17.73;44.92;101238.44;4954659;29;20042;-65
2023/03/21 05:29:05;;;;;;;11.75;3.40;;;;;;;17.72;45.13;101244.03;4939132;29;20054;-64
2023/03/21 05:31:31;;;;;;;11.25;3.03;;;;;;;17.68;45.56;101239.97;4954260;29;20479;-64
2023/03/21 05:33:56;;;;;;;8.05;3.00;;;;;;;17.67;45.17;101249.94;4955181;28;20043;-65
2023/03/21 05:36:22;;;;;;;5.65;2.70;;;;;;;17.66;44.87;101250.13;4954258;28;20046;-65
2023/03/21 05:38:47;;;;;;;23.40;3.70;;;;;;;17.66;45.26;101252.84;4954127;29;20407;-64
2023/03/21 05:41:14;;;;;;;10.60;3.05;;;;;;;17.67;44.70;101254.53;4970182;28;20046;-65
2023/03/21 05:43:40;;;;;;;8.50;2.72;;;;;;;17.61;45.34;101245.22;4954172;29;20549;-64
2023/03/21 05:46:06;;;;;;;6.35;2.33;;;;;;;17.63;45.10;101240.47;4954175;28;20130;-65
2023/03/21 05:48:31;;;;;;;4.70;2.00;;;;;;;17.60;45.55;101240.78;4938144;29;20114;-64
2023/03/21 05:50:57;;;;;;;8.23;2.47;;;;;;;17.58;45.47;101228.44;4954278;29;20035;-65
2023/03/21 05:53:22;;;;;;;4.25;1.55;;;;;;;17.55;45.24;101240.44;4955262;28;20435;-64
2023/03/21 05:55:48;;;;;;;6.65;2.30;;;;;;;17.52;45.86;101246.16;4953955;28;20518;-65
2023/03/21 05:58:13;;;;;;;3.70;1.30;;;;;;;17.49;45.47;101230.22;4956804;28;20035;-65
2023/03/21 06:00:38;;;;;;;5.00;1.42;;;;;;;17.48;45.33;101234.78;4941953;29;20403;-64
2023/03/21 06:03:04;;;;;;;7.00;2.05;;;;;;;17.48;44.62;101228.50;4959230;28;20435;-64
2023/03/21 06:05:30;;;;;;;2.90;1.42;;;;;;;17.46;44.83;101227.84;4957679;28;20055;-63
2023/03/21 06:07:56;;;;;;;2.38;1.85;;;;;;;17.51;45.14;101221.91;4958053;29;20043;-64
2023/03/21 06:10:21;;;;;;;8.02;1.77;;;;;;;17.54;45.47;101225.19;4959137;28;20031;-64
2023/03/21 06:12:47;;;;;;;1.38;1.23;;;;;;;17.56;45.88;101225.03;4957902;29;20376;-64
2023/03/21 06:15:12;;;;;;;3.83;1.10;;;;;;;17.58;45.02;101223.84;4957717;28;20159;-64
2023/03/21 06:17:38;;;;;;;2.17;1.10;;;;;;;17.62;44.90;101221.66;4957714;29;20057;-64
2023/03/21 06:20:05;;;;;;;3.00;1.17;;;;;;;17.61;44.75;101210.00;4958885;28;20114;-64
2023/03/21 06:22:32;;;;;;;4.47;1.17;;;;;;;17.66;45.97;101215.75;4941904;29;20023;-65
2023/03/21 06:24:57;;;;;;;4.63;0.90;;;;;;;17.69;44.88;101220.84;4925831;29;20431;-64
2023/03/21 06:27:24;;;;;;;7.22;1.85;;;;;;;17.70;44.97;101225.22;4957442;29;20042;-65
2023/03/21 06:29:50;;;;;;;3.78;1.20;;;;;;;17.76;44.87;101218.28;4957495;29;20027;-64
2023/03/21 06:32:15;;;;;;;9.73;1.52;;;;;;;17.77;44.89;101218.16;4941290;29;20046;-65
2023/03/21 06:34:41;;;;;;;4.20;1.38;;;;;;;17.80;44.80;101223.25;4957319;29;20498;-65
2023/03/21 06:37:07;;;;;;;4.07;1.52;;;;;;;17.81;44.56;101227.63;4957387;29;20027;-65
2023/03/21 06:39:32;;;;;;;3.72;1.30;;;;;;;17.78;45.29;101211.69;4941875;29;20035;-65
2023/03/21 06:41:58;;;;;;;4.03;1.40;;;;;;;17.76;44.61;101227.28;4941801;29;20555;-64
2023/03/21 06:44:24;;;;;;;6.32;1.33;;;;;;;17.71;44.65;101229.66;4957648;29;20038;-66
2023/03/21 06:46:50;;;;;;;7.40;2.15;;;;;;;17.68;45.10;101234.53;4941961;29;20046;-66
2023/03/21 06:49:16;;;;;;;8.63;1.42;;;;;;;17.65;45.64;101224.88;4941567;29;20046;-65
2023/03/21 06:51:42;;;;;;;4.68;1.90;;;;;;;17.62;45.11;101224.34;4958267;29;20035;-65
2023/03/21 06:54:08;;;;;;;3.67;2.08;;;;;;;17.60;45.74;101221.81;4973916;28;20054;-64
2023/03/21 06:56:33;;;;;;;3.67;2.13;;;;;;;17.59;45.23;101220.13;4942284;29;20035;-64
2023/03/21 06:58:59;;;;;;;7.80;2.13;;;;;;;17.59;44.91;101220.13;4957549;29;20039;-65
2023/03/21 07:01:26;;;;;;;9.65;2.17;;;;;;;17.62;45.60;101225.22;4958497;28;20050;-64
2023/03/21 07:03:52;;;;;;;4.30;2.85;;;;;;;17.65;45.45;101226.72;4961335;28;20018;-64
2023/03/21 07:06:18;;;;;;;2.65;1.73;;;;;;;17.65;45.38;101218.59;4944467;28;20511;-65
2023/03/21 07:08:43;;;;;;;9.98;2.28;;;;;;;17.67;46.04;101227.44;4959481;28;20031;-62
2023/03/21 07:11:09;;;;;;;3.90;1.70;;;;;;;17.70;46.65;101227.94;4976205;28;20042;-64
2023/03/21 07:13:35;;;;;;;11.88;2.90;;;;;;;17.71;46.62;101220.66;4976334;28;20053;-64
2023/03/21 07:16:00;;;;;;;3.72;1.80;;;;;;;17.72;46.11;101230.50;4977922;28;20031;-64
2023/03/21 07:18:26;;;;;;;6.85;2.67;;;;;;;17.76;45.66;101235.41;4960299;28;20035;-64
2023/03/21 07:20:52;;;;;;;5.53;2.00;;;;;;;17.77;45.40;101226.28;4976407;28;20394;-64
2023/03/21 07:23:20;;;;;;;11.45;2.60;;;;;;;17.78;45.56;101232.56;4976133;28;20035;-64
2023/03/21 07:25:47;;;;;;;5.38;2.05;;;;;;;17.80;46.16;101234.06;4976796;28;20054;-64
2023/03/21 07:28:12;;;;;;;7.95;2.53;;;;;;;17.80;45.84;101236.78;4960426;28;20038;-64
2023/03/21 07:30:40;;;;;;;4.90;2.08;;;;;;;17.85;45.65;101237.13;4943997;28;20093;-65
2023/03/21 07:33:06;;;;;;;7.72;1.83;;;;;;;17.89;45.58;101235.81;4975915;28;20023;-64
2023/03/21 07:35:32;;;;;;;10.95;2.05;;;;;;;17.90;45.41;101242.03;4976852;28;20512;-64
2023/03/21 07:37:57;;;;;;;8.00;1.50;;;;;;;17.95;44.96;101240.53;4975868;28;20030;-64
2023/03/21 07:40:23;;;;;;;7.30;1.80;;;;;;;17.96;45.94;101247.66;4972852;28;20070;-64
2023/03/21 07:50:48;;;;;;;3.30;1.35;;;;;;;18.14;45.31;101246.66;4951911;29;20050;-65
2023/03/21 07:53:13;;;;;;;5.80;1.90;;;;;;;18.17;45.13;101246.34;4953222;29;20039;-64
2023/03/21 07:55:39;;;;;;;4.82;1.90;;;;;;;18.21;45.66;101236.84;4920880;29;20039;-64
2023/03/21 07:58:04;;;;;;;10.60;2.45;;;;;;;18.24;45.37;101242.78;4938358;29;20078;-64
2023/03/21 08:00:30;;;;;;;5.43;1.80;;;;;;;18.27;45.10;101241.59;4936917;29;20479;-64
2023/03/21 08:02:56;;;;;;;7.03;1.80;;;;;;;18.28;45.34;101251.44;4921201;29;20040;-64
2023/03/21 08:05:32;;;;;;;3.05;2.28;;;;;;;18.32;45.75;101239.22;4920930;29;20031;-64
2023/03/21 08:07:58;;;;;;;5.85;1.92;;;;;;;18.35;45.03;101247.88;4923089;29;20475;-64
2023/03/21 08:18:02;;;;;;;3.90;1.60;;;;;;;18.49;45.56;101252.66;4974078;28;20053;-65
2023/03/21 08:20:28;;;;;;;7.32;1.48;;;;;;;18.53;45.23;101253.16;4975507;28;20027;-64
2023/03/21 08:22:54;;;;;;;3.55;1.83;;;;;;;18.58;44.91;101245.34;4973440;28;20061;-65
2023/03/21 08:25:20;;;;;;;7.68;2.08;;;;;;;18.63;45.57;101250.25;4975107;28;20486;-65
2023/03/21 08:27:47;;;;;;;6.47;1.63;;;;;;;18.63;45.10;101236.69;4974187;28;20039;-65
2023/03/21 08:30:15;;;;;;;5.30;2.22;;;;;;;18.65;45.04;101234.66;4975403;28;20414;-65
2023/03/21 08:32:41;;;;;;;4.05;1.60;;;;;;;18.70;45.43;101238.56;4974279;28;20033;-65
2023/03/21 08:35:09;;;;;;;9.43;2.00;;;;;;;18.68;44.93;101232.44;4958034;28;20034;-64
2023/03/21 08:37:36;;;;;;;10.10;1.83;;;;;;;18.64;44.97;101232.97;4974660;28;20565;-65
2023/03/21 08:40:02;;;;;;;5.75;1.70;;;;;;;18.55;45.20;101230.25;4974293;28;20042;-65
2023/03/21 08:42:27;;;;;;;8.35;1.90;;;;;;;18.50;45.17;101231.78;4973971;28;20037;-65
2023/03/21 08:44:53;;;;;;;2.78;1.60;;;;;;;18.47;45.41;101229.38;4941932;28;20034;-65
2023/03/21 08:47:18;;;;;;;4.75;1.88;;;;;;;18.39;45.41;101234.81;4974015;28;20034;-65
2023/03/21 08:49:44;;;;;;;9.80;1.85;;;;;;;18.25;45.46;101239.06;4942287;28;20030;-64
2023/03/21 08:52:10;;;;;;;3.63;1.95;;;;;;;18.14;45.42;101225.84;4973956;28;20039;-65
2023/03/21 08:54:36;;;;;;;4.25;1.83;;;;;;;18.07;45.73;101237.50;4975303;28;20035;-64
2023/03/21 08:57:02;;;;;;;8.43;1.75;;;;;;;18.00;45.82;101227.34;4957902;28;20031;-65
2023/03/21 08:59:28;;;;;;;4.25;2.05;;;;;;;17.98;45.69;101225.78;4975296;28;20033;-64
2023/03/21 09:01:53;;;;;;;7.13;1.90;;;;;;;17.93;46.43;101215.47;5274881;23;20539;-66
2023/03/21 09:04:19;;;;;;;3.20;1.80;;;;;;;17.93;46.08;101218.16;4960975;28;20042;-65
2023/03/21 09:06:46;;;;;;;4.70;1.67;;;;;;;17.96;46.70;101212.41;4992920;28;20117;-65
2023/03/21 09:09:13;;;;;;;7.32;2.25;;;;;;;17.97;46.61;101214.13;4991996;28;20122;-64
2023/03/21 09:11:38;;;;;;;14.25;2.25;;;;;;;18.01;46.49;101218.19;4992963;28;20125;-64
2023/03/21 09:14:04;;;;;;;3.88;1.80;;;;;;;18.09;46.73;101222.75;4994105;28;20062;-64
2023/03/21 09:16:30;;;;;;;7.18;2.33;;;;;;;18.12;45.94;101211.56;4961090;28;20034;-65
2023/03/21 09:19:14;;;;;;;4.65;1.70;;;;;;;18.15;46.18;101211.25;5604524;23;20114;-65
2023/03/21 09:21:40;;;;;;;11.90;3.08;;;;;;;18.21;46.77;101205.13;4933861;29;20046;-65
2023/03/21 09:24:06;;;;;;;5.57;2.05;;;;;;;18.27;46.48;101209.91;4935893;28;20047;-65
2023/03/21 09:26:32;;;;;;;5.15;1.98;;;;;;;18.35;45.70;101199.03;4934957;29;20610;-65
2023/03/21 09:28:59;;;;;;;11.57;2.53;;;;;;;18.51;45.86;101206.34;4934833;28;20031;-64
2023/03/21 09:31:27;;;;;;;10.95;2.15;;;;;;;18.70;45.67;101195.16;4919337;29;20487;-65
2023/03/21 09:33:54;;;;;;;7.25;1.90;;;;;;;18.88;45.96;101187.63;4934648;29;20032;-64
2023/03/21 09:36:23;;;;;;;5.75;2.05;;;;;;;19.01;45.49;101181.66;4934763;29;20043;-65
2023/03/21 09:38:49;;;;;;;7.07;2.50;;;;;;;19.16;45.67;101175.31;4934706;29;20027;-65
2023/03/21 09:41:36;;;;;;;8.35;2.47;;;;;;;19.32;45.58;101181.69;4918758;29;20118;-65
2023/03/21 09:44:10;;;;;;;5.43;1.48;;;;;;;19.52;45.37;101172.94;4934288;28;20055;-64
2023/03/21 09:46:39;;;;;;;2.95;1.80;;;;;;;19.65;44.90;101161.50;4936169;29;20495;-64
2023/03/21 09:49:09;;;;;;;3.53;1.65;;;;;;;19.72;44.83;101165.16;4934487;29;20143;-64
2023/03/21 09:51:39;;;;;;;8.13;2.60;;;;;;;19.81;45.09;101158.66;4934461;28;20036;-65
2023/03/21 09:54:12;;;;;;;2.30;1.30;;;;;;;19.93;44.73;101150.94;4934579;29;20042;-64
2023/03/21 09:56:40;;;;;;;6.57;1.55;;;;;;;20.08;44.70;101155.38;4918505;29;20078;-65
2023/03/21 10:02:35;;;;;;;4.15;1.63;;;;;;;19.77;45.51;101141.84;5156889;27;20383;-63
2023/03/21 10:05:08;;;;;;;6.60;1.50;;;;;;;19.91;44.95;101142.94;5089307;28;20044;-63
2023/03/21 10:07:39;;;;;;;4.68;1.67;;;;;;;20.12;44.75;101150.44;5073460;28;20028;-63
2023/03/21 10:10:06;;;;;;;5.63;1.52;;;;;;;20.23;45.12;101134.50;5072062;28;20030;-64
2023/03/21 10:12:31;;;;;;;5.68;1.83;;;;;;;20.28;44.25;101128.53;5089237;28;20032;-63
2023/03/21 10:14:59;;;;;;;8.60;1.67;;;;;;;20.26;43.98;101136.06;5055602;28;20101;-63
2023/03/21 10:17:36;;;;;;;4.88;1.90;;;;;;;20.24;44.66;101135.34;5055373;28;20512;-64
2023/03/21 10:20:37;;;;;;;2.97;1.73;;;;;;;20.21;44.15;101125.66;5088578;28;20036;-63
2023/03/21 10:23:12;;;;;;;4.13;1.52;;;;;;;20.22;44.93;101123.78;5086307;28;20047;-63
2023/03/21 10:26:05;;;;;;;6.13;1.80;;;;;;;20.23;44.25;101126.34;5088817;28;20024;-62
2023/03/21 10:28:34;;;;;;;5.95;1.98;;;;;;;20.22;43.76;101124.66;5069500;28;20028;-63
2023/03/21 10:31:03;;;;;;;4.85;1.98;;;;;;;20.19;44.23;101114.13;5090768;28;20095;-64
2023/03/21 10:33:34;;;;;;;4.30;2.08;;;;;;;20.19;44.39;101125.00;5088845;28;20028;-63
2023/03/21 10:36:09;;;;;;;6.82;2.00;;;;;;;20.20;44.51;101121.28;5087858;28;20107;-63
2023/03/21 10:38:37;;;;;;;4.57;2.30;;;;;;;20.24;43.72;101114.44;5088575;28;20458;-64
2023/03/21 10:41:03;;;;;;;4.53;2.13;;;;;;;20.33;43.41;101120.66;5071570;28;20024;-65
2023/03/21 10:43:34;;;;;;;11.45;1.80;;;;;;;20.40;43.58;101128.94;5071423;28;20047;-63
2023/03/21 10:46:06;;;;;;;6.57;1.55;;;;;;;20.38;43.46;101115.50;5090033;28;20095;-63
2023/03/21 10:48:38;;;;;;;3.08;1.60;;;;;;;20.39;43.83;101108.19;5088408;28;20040;-64
2023/03/21 10:51:06;;;;;;;2.85;1.60;;;;;;;20.38;43.86;101111.97;5088211;28;20100;-63
2023/03/21 10:53:54;;;;;;;6.90;1.73;;;;;;;20.36;43.11;101108.56;5089699;28;20047;-64
2023/03/21 10:56:23;;;;;;;9.15;1.63;;;;;;;20.33;43.32;101099.75;5089201;28;20449;-63
2023/03/21 10:58:49;;;;;;;7.85;1.48;;;;;;;20.30;43.11;101105.56;5088143;28;20042;-63
2023/03/21 11:01:30;;;;;;;7.10;1.50;;;;;;;20.26;42.78;101115.13;5070901;28;20143;-64
2023/03/21 11:03:59;;;;;;;5.00;1.75;;;;;;;20.23;42.85;101099.16;5098161;28;20456;-63
2023/03/21 11:06:30;;;;;;;5.38;1.38;;;;;;;20.25;43.03;101107.13;5108928;28;20028;-64
2023/03/21 11:09:12;;;;;;;3.63;1.13;;;;;;;20.26;43.15;101104.25;5103821;28;20499;-63
2023/03/21 11:11:40;;;;;;;5.18;1.40;;;;;;;20.30;42.36;101111.00;5086108;28;20070;-63
2023/03/21 11:14:12;;;;;;;1.75;1.15;;;;;;;20.36;42.14;101111.28;5074513;28;20112;-63
2023/03/21 11:16:42;;;;;;;4.90;1.60;;;;;;;20.36;42.46;101114.00;5074314;28;20390;-63
2023/03/21 11:19:16;;;;;;;4.40;1.60;;;;;;;20.32;42.59;101117.09;5058056;28;20502;-63
2023/03/21 11:21:42;;;;;;;4.38;1.38;;;;;;;20.31;42.57;101123.59;5057551;28;20446;-64
2023/03/21 11:24:16;;;;;;;1.60;1.02;;;;;;;20.30;42.59;101119.16;5074454;28;20569;-63
2023/03/21 11:26:44;;;;;;;5.82;1.52;;;;;;;20.35;42.10;101125.94;5057737;28;20036;-63
2023/03/21 11:29:28;;;;;;;3.92;1.55;;;;;;;20.40;42.70;101121.63;5074139;28;20042;-62
2023/03/21 11:31:58;;;;;;;5.18;1.77;;;;;;;20.47;42.49;101116.25;5057173;28;20452;-64
2023/03/21 11:34:46;;;;;;;4.28;1.60;;;;;;;20.65;42.09;101109.44;5073811;28;20470;-64
2023/03/21 11:37:39;;;;;;;5.93;1.67;;;;;;;20.81;41.50;101101.06;5075482;28;20020;-64
2023/03/21 11:40:08;;;;;;;;;;;;;;;20.89;41.44;101105.56;5056525;28;20399;-63
2023/03/21 11:42:41;;;;;;;3.40;1.48;;;;;;;20.99;41.16;101095.25;5073937;28;19912;-64
2023/03/21 11:45:13;;;;;;;3.72;1.30;;;;;;;21.04;41.08;101100.97;5073975;28;20044;-63
2023/03/21 11:47:38;;;;;;;5.13;1.50;;;;;;;21.09;41.31;101098.53;5074001;28;20108;-64
2023/03/21 11:50:16;;;;;;;3.58;2.00;;;;;;;21.18;40.68;101111.03;5073362;28;20035;-63
2023/03/21 11:52:50;;;;;;;2.70;1.45;;;;;;;21.26;40.68;101096.44;5056997;28;20138;-64